Gobernador Crespo, Argentina
Current Conditions -  °F | °C
As of 9:00 AM on Monday 24 Nov 2014 (Local Time) from SUSO Reporting Station
Clear Clear  
Wind Chill: 75°   Ceiling: Unl
Heat Index: 75°   Visibility: 6mi
Dew Point: 59°   Wind: 12mph
Humidity: 57%   Direction: 60°ENE
Pressure: 29.77"   Gusts: NA
Location:  30.38°S, 60.42°W
Report Text: SUSO 241200Z 06010KT CAVOK 24/15 Q1008
Loading
Personal Weather Stations






























Interactive Weather Map New forecast layout! Learn more

10-Day Weather Forecast

Advertisements
Track Severe Weather on mobile